»·PEaware :: AAL1524 KLAS-KSFO

AAL1524 :: KLAS-KSFO

FLIGHT INFORMATION

Flight Status: Arrived
Operator:
American Airlines
More flights by this operator :: More flights under this callsign
Pilot: Matteo S. (9898)
Aircraft: BOEING 757-200
(B752)
More flights by this aircraft type
Origin: KLAS McCarran Intl
United States
Destination: KSFO San Francisco Intl
United States
More flights between these airports :: More routes between these airports
Route: SHEAD1 KENNO RUSME DYAMD3
File this flight plan on PilotEdge
Remarks:
Altitude:
(Current/Filed)
34,000ft
Speed:
(Current/Filed)
460kts
Departed: 21-Jan-18 12:08 PM
Arrived: 21-Jan-18 01:19 PM
Distance/Time
Traveled:
359nm/1:10
Distance/Time
To Go:
Arrived

Flight Plot

Page will automatically refresh every two minutes.

Flight plan parsing failed; only flown route is shown


Map Options




Map Legend


Flown Route
Filed Route
Departure Airport
Arrival Airport
Navaid (VOR, NDB)
Fix

Horizontal Profiles

Position Reports

Time Latitude Longitude Heading Altitude Ground
Speed
21-Jan-18 11:50 36.083461 -115.136282 159 2152ft 0kts
21-Jan-18 11:51 36.083461 -115.136282 159 2152ft 0kts
21-Jan-18 11:52 36.083461 -115.136282 159 2152ft 0kts
21-Jan-18 11:53 36.083461 -115.136282 159 2152ft 0kts
21-Jan-18 11:54 36.083461 -115.136282 159 2152ft 0kts
21-Jan-18 11:55 36.083461 -115.136282 159 2152ft 0kts
21-Jan-18 11:56 36.083461 -115.136282 159 2152ft 0kts
21-Jan-18 11:57 36.083461 -115.136282 159 2152ft 0kts
21-Jan-18 11:58 36.083486 -115.136293 159 2152ft 0kts
21-Jan-18 11:59 36.084132 -115.136594 159 2152ft 2kts
21-Jan-18 12:00 36.084664 -115.136199 264 2152ft 2kts
21-Jan-18 12:01 36.084668 -115.136137 267 2152ft 1kts
21-Jan-18 12:02 36.084641 -115.137947 272 2152ft 6kts
21-Jan-18 12:03 36.084620 -115.140203 254 2152ft 6kts
21-Jan-18 12:04 36.083278 -115.141586 181 2152ft 6kts
21-Jan-18 12:05 36.081443 -115.141598 179 2152ft 6kts
21-Jan-18 12:06 36.079596 -115.141577 180 2152ft 6kts
21-Jan-18 12:07 36.078234 -115.140707 94 2152ft 6kts
21-Jan-18 12:08 36.078282 -115.138343 89 2152ft 9kts
21-Jan-18 12:09 36.078276 -115.134198 90 2152ft 10kts
21-Jan-18 12:10 36.078280 -115.130857 89 2152ft 10kts
21-Jan-18 12:11 36.078282 -115.126672 90 2152ft 12kts
21-Jan-18 12:12 36.078270 -115.122994 98 2152ft 9kts
21-Jan-18 12:13 36.076962 -115.121263 178 2152ft 6kts
21-Jan-18 12:14 36.076393 -115.138898 271 2166ft 167kts
21-Jan-18 12:15 36.075682 -115.203730 272 4532ft 214kts
21-Jan-18 12:16 36.048987 -115.272638 198 6878ft 273kts
21-Jan-18 12:17 35.973570 -115.302880 213 7297ft 305kts
21-Jan-18 12:18 35.916657 -115.367970 224 9004ft 273kts
21-Jan-18 12:19 35.887539 -115.448284 272 10107ft 289kts
21-Jan-18 12:20 35.888831 -115.560043 273 10977ft 338kts
21-Jan-18 12:21 35.890736 -115.664458 273 11493ft 343kts
21-Jan-18 12:22 35.892669 -115.778194 274 15095ft 337kts
21-Jan-18 12:23 35.894555 -115.894912 274 17787ft 347kts
21-Jan-18 12:24 35.924802 -116.003199 315 20185ft 352kts
21-Jan-18 12:25 35.996963 -116.087226 315 22403ft 363kts
21-Jan-18 12:26 36.071680 -116.173508 315 24433ft 373kts
21-Jan-18 12:27 36.147944 -116.261661 314 26386ft 381kts
21-Jan-18 12:28 36.225725 -116.351804 314 28171ft 388kts
21-Jan-18 12:29 36.304929 -116.443862 314 29794ft 395kts
21-Jan-18 12:30 36.385552 -116.537852 314 31206ft 403kts
21-Jan-18 12:31 36.466979 -116.633040 313 32985ft 401kts
21-Jan-18 12:32 36.546336 -116.726099 313 34320ft 394kts
21-Jan-18 12:33 36.638203 -116.803922 323 34320ft 405kts
21-Jan-18 12:34 36.734265 -116.877183 323 34318ft 405kts
21-Jan-18 12:35 36.829952 -116.950166 323 34317ft 405kts
21-Jan-18 12:36 36.925973 -117.023582 323 34315ft 406kts
21-Jan-18 12:37 37.022039 -117.097253 323 34300ft 406kts
21-Jan-18 12:38 37.117668 -117.170803 323 34291ft 406kts
21-Jan-18 12:39 37.213706 -117.244889 323 34290ft 406kts
21-Jan-18 12:40 37.308336 -117.321418 316 34293ft 402kts
21-Jan-18 12:41 37.393173 -117.411820 316 34287ft 402kts
21-Jan-18 12:42 37.473863 -117.507466 301 34292ft 396kts
21-Jan-18 12:43 37.502673 -117.639649 279 34283ft 397kts
21-Jan-18 12:44 37.515109 -117.777296 277 34294ft 405kts
21-Jan-18 12:45 37.526652 -117.917938 276 34319ft 405kts
21-Jan-18 12:46 37.536022 -118.035347 276 34318ft 405kts
21-Jan-18 12:47 37.548913 -118.199853 276 34316ft 405kts
21-Jan-18 12:48 37.559790 -118.341116 276 34314ft 405kts
21-Jan-18 12:49 37.568693 -118.458428 276 34313ft 405kts
21-Jan-18 12:50 37.580965 -118.622796 276 34302ft 402kts
21-Jan-18 12:51 37.590962 -118.758989 276 34267ft 405kts
21-Jan-18 12:52 37.599454 -118.876440 276 34265ft 405kts
21-Jan-18 12:53 37.609488 -119.017389 276 34264ft 404kts
21-Jan-18 12:54 37.619362 -119.158480 276 34262ft 404kts
21-Jan-18 12:55 37.629068 -119.299609 276 34260ft 404kts
21-Jan-18 12:56 37.638590 -119.440548 276 34258ft 404kts
21-Jan-18 12:57 37.647959 -119.581741 276 34257ft 404kts
21-Jan-18 12:58 37.657025 -119.720888 275 34267ft 404kts
21-Jan-18 12:59 37.666046 -119.861898 275 34143ft 406kts
21-Jan-18 13:00 37.674976 -120.004205 275 32439ft 410kts
21-Jan-18 13:01 37.683654 -120.145338 276 30663ft 399kts
21-Jan-18 13:02 37.691999 -120.283596 276 28913ft 392kts
21-Jan-18 13:03 37.696451 -120.419366 265 27185ft 388kts
21-Jan-18 13:04 37.681794 -120.552421 264 25115ft 374kts
21-Jan-18 13:05 37.668367 -120.667844 263 23704ft 361kts
21-Jan-18 13:06 37.653813 -120.790459 263 22225ft 353kts
21-Jan-18 13:07 37.639253 -120.911258 264 20728ft 345kts
21-Jan-18 13:08 37.624131 -121.029283 263 19225ft 337kts
21-Jan-18 13:09 37.608718 -121.144510 263 17635ft 329kts
21-Jan-18 13:10 37.593662 -121.256279 263 15934ft 321kts
21-Jan-18 13:11 37.580907 -121.365900 264 14222ft 313kts
21-Jan-18 13:12 37.568510 -121.473145 264 12504ft 306kts
21-Jan-18 13:13 37.556508 -121.575950 264 10769ft 277kts
21-Jan-18 13:14 37.544547 -121.671199 252 9067ft 274kts
21-Jan-18 13:15 37.519644 -121.759846 251 8062ft 263kts
21-Jan-18 13:16 37.496671 -121.847092 251 8087ft 262kts
21-Jan-18 13:17 37.474032 -121.933083 250 7373ft 252kts
21-Jan-18 13:18 37.452657 -122.015658 259 5678ft 238kts
21-Jan-18 13:19 37.491112 -122.076361 306 4751ft 237kts
21-Jan-18 13:20 37.522586 -122.147356 297 3777ft 222kts
21-Jan-18 13:21 37.550208 -122.212335 297 2664ft 192kts
21-Jan-18 13:22 37.573581 -122.267761 299 1653ft 163kts
21-Jan-18 13:23 37.592014 -122.311503 299 872ft 129kts
21-Jan-18 13:24 37.608607 -122.351222 301 185ft 129kts
21-Jan-18 13:25 37.619851 -122.377811 288 24ft 16kts
21-Jan-18 13:26 37.619750 -122.379179 229 24ft 2kts
21-Jan-18 13:27 37.618392 -122.379775 159 24ft 3kts
21-Jan-18 13:28 37.617864 -122.380624 257 24ft 0kts
21-Jan-18 13:29 37.617864 -122.380624 257 24ft 0kts

Navigation Log

Ident Type
Flight plan parsing failed, navigation log unavailable